createdAt,value
2022-09-11T00:01:49.987Z,15.20
2022-09-11T00:04:18.519Z,15.10
2022-09-11T00:06:46.932Z,16.30
2022-09-11T00:09:16.790Z,16.40
2022-09-11T00:11:45.373Z,16.30
2022-09-11T00:14:15.286Z,16.20
2022-09-11T00:16:47.222Z,16.30
2022-09-11T00:19:19.334Z,16.10
2022-09-11T00:21:50.514Z,16.20
2022-09-11T00:24:20.407Z,16.20
2022-09-11T00:26:48.865Z,16.30
2022-09-11T00:29:17.656Z,16.30
2022-09-11T00:31:46.190Z,16.30
2022-09-11T00:34:14.635Z,16.10
2022-09-11T00:36:43.325Z,15.10
2022-09-11T00:39:14.376Z,16.30
2022-09-11T00:41:46.379Z,16.40
2022-09-11T00:45:00.369Z,16.10
2022-09-11T00:47:32.212Z,16.20
2022-09-11T00:50:12.987Z,16.30
2022-09-11T00:52:53.111Z,16.30
2022-09-11T00:55:27.358Z,16.30
2022-09-11T00:58:03.003Z,16.30
2022-09-11T01:00:32.130Z,16.10
2022-09-11T01:03:01.385Z,16.30
2022-09-11T01:05:37.434Z,15.70
2022-09-11T01:08:06.554Z,16.20
2022-09-11T01:10:48.846Z,14.80
2022-09-11T01:13:34.524Z,16.20
2022-09-11T01:16:18.813Z,14.70
2022-09-11T01:19:02.249Z,15.60
2022-09-11T01:22:10.497Z,15.70
2022-09-11T01:25:07.168Z,15.60
2022-09-11T01:27:50.744Z,15.80
2022-09-11T01:30:22.217Z,15.90
2022-09-11T01:33:15.872Z,15.60
2022-09-11T01:35:59.966Z,14.60
2022-09-11T01:38:37.825Z,15.50
2022-09-11T01:41:15.546Z,15.50
2022-09-11T01:43:55.134Z,15.40
2022-09-11T01:46:28.438Z,15.60
2022-09-11T01:49:04.894Z,15.70
2022-09-11T01:51:37.707Z,14.90
2022-09-11T01:54:11.967Z,15.20
2022-09-11T01:56:49.076Z,15.60
2022-09-11T01:59:27.951Z,15.50
2022-09-11T02:02:03.476Z,15.60
2022-09-11T02:04:39.045Z,15.60
2022-09-11T02:07:14.058Z,15.70
2022-09-11T02:09:48.573Z,15.80
2022-09-11T02:12:22.717Z,15.70
2022-09-11T02:14:54.949Z,15.90
2022-09-11T02:17:36.619Z,15.90
2022-09-11T02:20:06.870Z,16.00
2022-09-11T02:22:36.421Z,16.00
2022-09-11T02:25:06.404Z,16.00
2022-09-11T02:27:37.088Z,15.90
2022-09-11T02:30:09.206Z,15.70
2022-09-11T02:32:40.868Z,15.80
2022-09-11T02:35:11.056Z,16.00
2022-09-11T02:37:54.615Z,15.90
2022-09-11T02:40:56.975Z,15.90
2022-09-11T02:43:43.880Z,15.70
2022-09-11T02:46:57.082Z,15.80
2022-09-11T02:49:39.777Z,15.70
2022-09-11T02:52:23.184Z,15.80
2022-09-11T02:55:00.833Z,15.70
2022-09-11T02:57:36.018Z,15.90
2022-09-11T03:00:08.873Z,15.50
2022-09-11T03:02:44.484Z,15.70
2022-09-11T03:05:13.609Z,15.70
2022-09-11T03:07:42.167Z,15.60
2022-09-11T03:10:12.368Z,15.50
2022-09-11T03:12:41.518Z,15.70
2022-09-11T03:15:11.703Z,15.80
2022-09-11T03:17:42.937Z,15.90
2022-09-11T03:20:11.671Z,14.40
2022-09-11T03:22:40.136Z,15.50
2022-09-11T03:25:10.734Z,15.60
2022-09-11T03:27:39.780Z,15.70
2022-09-11T03:30:10.069Z,15.40
2022-09-11T03:32:39.918Z,15.60
2022-09-11T03:35:09.120Z,15.80
2022-09-11T03:37:37.508Z,15.10
2022-09-11T03:40:07.281Z,15.80
2022-09-11T03:42:35.724Z,14.70
2022-09-11T03:45:04.371Z,15.60
2022-09-11T03:47:32.794Z,15.70
2022-09-11T03:50:02.646Z,15.40
2022-09-11T03:52:31.510Z,15.80
2022-09-11T03:55:00.404Z,15.90
2022-09-11T03:57:28.900Z,15.90
2022-09-11T03:59:57.384Z,15.30
2022-09-11T04:02:25.805Z,15.30
2022-09-11T04:04:54.273Z,14.70
2022-09-11T04:07:24.205Z,15.70
2022-09-11T04:09:52.634Z,15.10
2022-09-11T04:12:21.061Z,15.70
2022-09-11T04:14:50.388Z,15.20
2022-09-11T04:17:19.681Z,15.00
2022-09-11T04:19:48.271Z,15.40
2022-09-11T04:22:16.779Z,15.00
2022-09-11T04:24:46.977Z,14.80
2022-09-11T04:27:15.448Z,15.40
2022-09-11T04:29:44.074Z,14.80
2022-09-11T04:32:13.297Z,14.30
2022-09-11T04:34:41.926Z,14.40
2022-09-11T04:37:11.624Z,15.70
2022-09-11T04:39:40.143Z,15.30
2022-09-11T04:42:10.533Z,14.80
2022-09-11T04:44:39.218Z,15.40
2022-09-11T04:47:07.730Z,15.70
2022-09-11T04:49:36.161Z,15.80
2022-09-11T04:52:06.248Z,15.60
2022-09-11T04:54:37.165Z,16.00
2022-09-11T04:57:05.994Z,16.10
2022-09-11T04:59:35.881Z,16.20
2022-09-11T05:02:04.674Z,15.40
2022-09-11T05:04:33.185Z,16.20
2022-09-11T05:07:01.997Z,15.60
2022-09-11T05:09:30.887Z,16.20
2022-09-11T05:11:59.369Z,15.50
2022-09-11T05:14:28.236Z,16.30
2022-09-11T05:16:58.045Z,16.10
2022-09-11T05:19:26.754Z,15.80
2022-09-11T05:21:55.643Z,16.10
2022-09-11T05:24:24.056Z,15.90
2022-09-11T05:26:52.526Z,15.30
2022-09-11T05:29:21.498Z,16.30
2022-09-11T05:31:50.066Z,16.40
2022-09-11T05:34:22.269Z,15.70
2022-09-11T05:36:50.708Z,15.60
2022-09-11T05:39:19.182Z,16.10
2022-09-11T05:41:47.623Z,15.90
2022-09-11T05:44:16.046Z,16.20
2022-09-11T05:46:44.548Z,16.10
2022-09-11T05:49:13.149Z,16.20
2022-09-11T05:51:43.025Z,16.30
2022-09-11T05:54:11.766Z,16.30
2022-09-11T05:56:41.113Z,16.20
2022-09-11T05:59:15.393Z,16.30
2022-09-11T06:01:44.150Z,16.30
2022-09-11T06:04:13.782Z,15.60
2022-09-11T06:06:43.823Z,15.80
2022-09-11T06:09:12.388Z,15.50
2022-09-11T06:11:40.776Z,16.20
2022-09-11T06:14:09.424Z,16.20
2022-09-11T06:16:37.924Z,16.20
2022-09-11T06:19:06.645Z,15.10
2022-09-11T06:21:35.425Z,16.30
2022-09-11T06:24:06.610Z,16.30
2022-09-11T06:26:36.630Z,16.20
2022-09-11T06:29:05.100Z,16.50
2022-09-11T06:31:33.531Z,16.50
2022-09-11T06:34:02.187Z,16.50
2022-09-11T06:36:31.676Z,16.30
2022-09-11T06:39:00.496Z,16.50
2022-09-11T06:41:30.438Z,16.40
2022-09-11T06:43:58.964Z,16.10
2022-09-11T06:46:27.608Z,16.60
2022-09-11T06:48:57.682Z,16.80
2022-09-11T06:51:27.220Z,15.60
2022-09-11T06:53:57.813Z,17.00
2022-09-11T06:56:27.051Z,14.80
2022-09-11T06:58:57.221Z,17.00
2022-09-11T07:01:26.647Z,17.10
2022-09-11T07:03:56.376Z,16.80
2022-09-11T07:06:27.781Z,16.50
2022-09-11T07:09:00.906Z,16.70
2022-09-11T07:11:32.341Z,16.60
2022-09-11T07:14:05.882Z,16.70
2022-09-11T07:16:35.058Z,16.40
2022-09-11T07:19:05.261Z,16.00
2022-09-11T07:21:35.653Z,16.10
2022-09-11T07:24:05.107Z,17.00
2022-09-11T07:26:33.586Z,16.70
2022-09-11T07:29:03.866Z,16.90
2022-09-11T07:31:34.544Z,15.90
2022-09-11T07:34:03.909Z,16.00
2022-09-11T07:36:35.774Z,16.80
2022-09-11T07:39:05.141Z,16.80
2022-09-11T07:41:34.798Z,15.50
2022-09-11T07:44:06.614Z,16.50
2022-09-11T07:46:35.867Z,16.60
2022-09-11T07:49:04.489Z,16.70
2022-09-11T07:51:35.064Z,15.40
2022-09-11T07:54:03.732Z,17.00
2022-09-11T07:56:32.217Z,16.80
2022-09-11T07:59:01.742Z,17.00
2022-09-11T08:01:33.352Z,16.90
2022-09-11T08:04:05.664Z,17.60
2022-09-11T08:06:37.777Z,17.00
2022-09-11T08:09:10.977Z,17.30
2022-09-11T08:11:42.009Z,17.70
2022-09-11T08:14:11.792Z,17.70
2022-09-11T08:16:42.719Z,17.90
2022-09-11T08:19:19.416Z,15.20
2022-09-11T08:21:48.373Z,17.00
2022-09-11T08:24:18.169Z,17.80
2022-09-11T08:26:48.950Z,17.60
2022-09-11T08:29:18.379Z,18.60
2022-09-11T08:31:48.250Z,18.80
2022-09-11T08:34:17.251Z,18.70
2022-09-11T08:36:45.662Z,18.70
2022-09-11T08:39:14.202Z,19.10
2022-09-11T08:41:49.078Z,19.50
2022-09-11T08:44:25.805Z,19.30
2022-09-11T08:47:06.646Z,19.00
2022-09-11T08:49:43.416Z,19.90
2022-09-11T08:52:16.857Z,20.20
2022-09-11T08:54:48.595Z,20.40
2022-09-11T08:57:23.732Z,20.50
2022-09-11T09:00:10.627Z,19.90
2022-09-11T09:03:15.078Z,20.80
2022-09-11T09:05:54.360Z,20.70
2022-09-11T09:08:46.538Z,20.70
2022-09-11T09:11:34.285Z,20.60
2022-09-11T09:14:33.710Z,21.10
2022-09-11T09:17:08.714Z,19.90
2022-09-11T09:19:46.506Z,20.30
2022-09-11T09:22:23.260Z,21.20
2022-09-11T09:24:55.861Z,20.70
2022-09-11T09:27:31.924Z,20.90
2022-09-11T09:30:05.876Z,20.60
2022-09-11T09:32:44.738Z,19.20
2022-09-11T09:35:20.617Z,19.10
2022-09-11T09:37:49.418Z,20.90
2022-09-11T09:40:19.797Z,21.00
2022-09-11T09:43:14.038Z,20.70
2022-09-11T09:45:57.395Z,20.20
2022-09-11T09:48:26.354Z,21.10
2022-09-11T09:50:59.518Z,20.80
2022-09-11T09:53:37.434Z,21.70
2022-09-11T09:56:07.332Z,22.00
2022-09-11T09:58:44.485Z,22.30
2022-09-11T10:01:46.496Z,22.30
2022-09-11T10:04:24.016Z,22.50
2022-09-11T10:07:06.295Z,22.00
2022-09-11T10:09:35.708Z,22.50
2022-09-11T10:12:28.530Z,22.10
2022-09-11T10:15:00.890Z,21.90
2022-09-11T10:17:35.343Z,22.00
2022-09-11T10:20:26.881Z,22.90
2022-09-11T10:22:57.147Z,22.90
2022-09-11T10:25:30.001Z,23.20
2022-09-11T10:28:06.073Z,23.30
2022-09-11T10:30:40.682Z,24.10
2022-09-11T10:33:22.219Z,24.20
2022-09-11T10:35:56.588Z,22.90
2022-09-11T10:38:41.147Z,23.50
2022-09-11T10:41:21.036Z,22.10
2022-09-11T10:43:56.699Z,22.80
2022-09-11T10:46:39.079Z,21.50
2022-09-11T10:49:20.454Z,21.40
2022-09-11T10:52:05.570Z,21.90
2022-09-11T10:55:00.358Z,20.90
2022-09-11T10:57:35.798Z,21.00
2022-09-11T11:00:15.282Z,21.70
2022-09-11T11:02:48.242Z,21.80
2022-09-11T11:05:27.202Z,19.70
2022-09-11T11:08:37.780Z,21.90
2022-09-11T11:11:30.042Z,21.40
2022-09-11T11:14:23.506Z,21.90
2022-09-11T11:17:06.184Z,21.30
2022-09-11T11:19:53.245Z,21.90
2022-09-11T11:22:45.582Z,21.90
2022-09-11T11:25:23.092Z,22.20
2022-09-11T11:28:23.336Z,21.40
2022-09-11T11:31:06.892Z,23.40
2022-09-11T11:34:14.475Z,24.40
2022-09-11T11:36:52.284Z,26.70
2022-09-11T11:39:27.909Z,27.50
2022-09-11T11:42:12.298Z,27.60
2022-09-11T11:44:51.617Z,26.80
2022-09-11T11:47:26.191Z,25.20
2022-09-11T11:50:06.467Z,25.90
2022-09-11T11:52:47.312Z,26.30
2022-09-11T11:55:21.057Z,24.60
2022-09-11T11:58:01.792Z,26.60
2022-09-11T12:00:40.752Z,26.30
2022-09-11T12:03:24.131Z,26.80
2022-09-11T12:05:52.902Z,26.50
2022-09-11T12:08:22.311Z,24.80
2022-09-11T12:10:59.967Z,25.90
2022-09-11T12:13:39.371Z,25.90
2022-09-11T12:16:17.479Z,25.80
2022-09-11T12:19:08.072Z,25.70
2022-09-11T12:22:12.799Z,25.90
2022-09-11T12:25:00.185Z,25.70
2022-09-11T12:27:55.902Z,25.50
2022-09-11T12:30:30.938Z,25.00
2022-09-11T12:33:04.341Z,23.40
2022-09-11T12:35:47.223Z,23.20
2022-09-11T12:38:30.441Z,24.20
2022-09-11T12:41:07.581Z,23.40
2022-09-11T12:43:50.879Z,23.50
2022-09-11T12:47:14.662Z,24.00
2022-09-11T12:49:55.170Z,22.90
2022-09-11T12:52:48.143Z,24.00
2022-09-11T12:55:34.357Z,23.80
2022-09-11T12:58:07.873Z,23.90
2022-09-11T13:00:41.833Z,24.20
2022-09-11T13:03:20.670Z,24.80
2022-09-11T13:05:58.351Z,24.80
2022-09-11T13:08:31.166Z,25.20
2022-09-11T13:11:38.263Z,25.30
2022-09-11T13:14:27.741Z,25.40
2022-09-11T13:16:57.224Z,25.30
2022-09-11T13:19:34.009Z,25.50
2022-09-11T13:22:02.805Z,25.00
2022-09-11T13:24:34.320Z,25.50
2022-09-11T13:27:08.935Z,25.40
2022-09-11T13:29:40.213Z,24.50
2022-09-11T13:32:11.758Z,24.70
2022-09-11T13:34:45.130Z,25.10
2022-09-11T13:37:26.613Z,25.00
2022-09-11T13:39:55.347Z,24.70
2022-09-11T13:42:25.911Z,26.50
2022-09-11T13:44:58.110Z,28.10
2022-09-11T13:47:28.548Z,30.20
2022-09-11T13:50:02.043Z,31.00
2022-09-11T13:52:35.358Z,31.30
2022-09-11T13:55:12.503Z,30.90
2022-09-11T13:57:56.612Z,29.80
2022-09-11T14:00:47.234Z,28.40
2022-09-11T14:03:23.420Z,27.50
2022-09-11T14:05:55.832Z,27.50
2022-09-11T14:08:32.882Z,27.40
2022-09-11T14:11:10.956Z,26.30
2022-09-11T14:13:50.136Z,28.50
2022-09-11T14:16:27.393Z,27.90
2022-09-11T14:19:00.837Z,27.10
2022-09-11T14:21:36.581Z,26.10
2022-09-11T14:24:25.233Z,25.80
2022-09-11T14:26:54.339Z,25.30
2022-09-11T14:29:30.914Z,24.90
2022-09-11T14:32:31.752Z,24.00
2022-09-11T14:35:00.838Z,22.80
2022-09-11T14:37:35.007Z,23.00
2022-09-11T14:40:07.462Z,23.70
2022-09-11T14:42:38.044Z,23.60
2022-09-11T14:45:12.012Z,23.60
2022-09-11T14:47:40.500Z,23.10
2022-09-11T14:50:13.307Z,23.30
2022-09-11T14:52:43.384Z,24.60
2022-09-11T14:55:16.639Z,25.20
2022-09-11T14:57:46.688Z,25.30
2022-09-11T15:00:19.216Z,27.00
2022-09-11T15:02:47.862Z,27.80
2022-09-11T15:05:21.780Z,29.10
2022-09-11T15:07:50.258Z,30.10
2022-09-11T15:10:18.863Z,29.80
2022-09-11T15:12:47.666Z,29.20
2022-09-11T15:15:17.800Z,27.60
2022-09-11T15:17:46.264Z,26.10
2022-09-11T15:20:14.916Z,26.90
2022-09-11T15:22:43.738Z,26.70
2022-09-11T15:25:12.768Z,25.10
2022-09-11T15:27:41.454Z,25.50
2022-09-11T15:30:11.741Z,25.60
2022-09-11T15:32:41.662Z,25.50
2022-09-11T15:35:12.677Z,25.10
2022-09-11T15:37:42.196Z,24.60
2022-09-11T15:40:11.960Z,24.60
2022-09-11T15:42:40.674Z,24.70
2022-09-11T15:45:11.138Z,24.70
2022-09-11T15:47:41.236Z,24.70
2022-09-11T15:50:10.672Z,24.50
2022-09-11T15:52:40.951Z,24.30
2022-09-11T15:55:10.853Z,23.60
2022-09-11T15:57:39.506Z,24.00
2022-09-11T16:00:10.111Z,23.90
2022-09-11T16:02:40.183Z,23.70
2022-09-11T16:05:09.524Z,23.30
2022-09-11T16:07:38.300Z,23.00
2022-09-11T16:10:08.089Z,22.80
2022-09-11T16:12:36.701Z,22.40
2022-09-11T16:15:06.397Z,23.20
2022-09-11T16:17:34.904Z,22.40
2022-09-11T16:20:07.890Z,22.00
2022-09-11T16:22:36.782Z,22.70
2022-09-11T16:25:12.475Z,21.90
2022-09-11T16:27:44.551Z,21.90
2022-09-11T16:30:42.140Z,21.90
2022-09-11T16:33:02.811Z,20.90
2022-09-11T16:35:34.201Z,21.60
2022-09-11T16:38:03.155Z,20.70
2022-09-11T16:40:31.876Z,21.10
2022-09-11T16:43:00.380Z,20.90
2022-09-11T16:45:29.131Z,20.80
2022-09-11T16:47:59.955Z,19.60
2022-09-11T16:50:29.186Z,19.60
2022-09-11T16:52:59.185Z,20.30
2022-09-11T16:55:27.686Z,17.50
2022-09-11T16:57:56.274Z,20.10
2022-09-11T17:00:25.050Z,19.90
2022-09-11T17:02:53.457Z,19.60
2022-09-11T17:05:21.969Z,20.10
2022-09-11T17:07:50.466Z,20.10
2022-09-11T17:10:20.383Z,19.90
2022-09-11T17:12:50.312Z,19.90
2022-09-11T17:15:20.405Z,19.90
2022-09-11T17:17:49.299Z,19.40
2022-09-11T17:20:17.942Z,18.80
2022-09-11T17:22:46.882Z,18.60
2022-09-11T17:25:15.348Z,18.90
2022-09-11T17:27:46.017Z,18.70
2022-09-11T17:30:16.814Z,19.00
2022-09-11T17:32:47.995Z,18.80
2022-09-11T17:35:17.739Z,19.40
2022-09-11T17:37:46.830Z,19.20
2022-09-11T17:40:18.502Z,17.70
2022-09-11T17:42:48.782Z,18.80
2022-09-11T17:45:17.450Z,19.10
2022-09-11T17:47:46.150Z,19.20
2022-09-11T17:50:15.097Z,18.60
2022-09-11T17:52:43.655Z,18.90
2022-09-11T17:55:12.177Z,18.90
2022-09-11T17:57:42.320Z,18.90
2022-09-11T18:00:14.391Z,18.90
2022-09-11T18:02:44.123Z,18.80
2022-09-11T18:05:12.691Z,18.80
2022-09-11T18:07:41.946Z,18.60
2022-09-11T18:10:11.691Z,18.60
2022-09-11T18:12:40.549Z,18.60
2022-09-11T18:15:14.902Z,15.80
2022-09-11T18:17:44.673Z,18.40
2022-09-11T18:20:17.763Z,17.50
2022-09-11T18:22:46.507Z,17.00
2022-09-11T18:25:25.220Z,18.20
2022-09-11T18:27:54.951Z,18.00
2022-09-11T18:30:25.407Z,16.50
2022-09-11T18:32:54.062Z,18.00
2022-09-11T18:35:23.600Z,18.00
2022-09-11T18:37:54.440Z,17.90
2022-09-11T18:40:23.393Z,15.80
2022-09-11T18:42:51.912Z,17.70
2022-09-11T18:45:20.640Z,16.20
2022-09-11T18:47:53.025Z,15.20
2022-09-11T18:50:22.179Z,17.20
2022-09-11T18:52:52.060Z,17.30
2022-09-11T18:55:22.976Z,15.80
2022-09-11T18:57:52.194Z,16.60
2022-09-11T19:00:21.059Z,17.10
2022-09-11T19:02:51.553Z,16.90
2022-09-11T19:05:21.756Z,17.00
2022-09-11T19:07:50.591Z,16.00
2022-09-11T19:10:20.137Z,16.80
2022-09-11T19:12:49.256Z,16.80
2022-09-11T19:15:18.415Z,16.80
2022-09-11T19:17:47.993Z,16.50
2022-09-11T19:20:19.920Z,16.70
2022-09-11T19:22:48.600Z,16.80
2022-09-11T19:25:17.420Z,16.70
2022-09-11T19:27:46.157Z,16.30
2022-09-11T19:30:16.262Z,16.60
2022-09-11T19:32:44.702Z,15.60
2022-09-11T19:35:13.380Z,16.60
2022-09-11T19:37:43.278Z,16.60
2022-09-11T19:40:12.380Z,16.60
2022-09-11T19:42:40.839Z,16.40
2022-09-11T19:45:10.400Z,16.40
2022-09-11T19:47:39.298Z,15.50
2022-09-11T19:50:09.740Z,16.30
2022-09-11T19:52:38.175Z,16.20
2022-09-11T19:55:08.875Z,16.00
2022-09-11T19:57:37.318Z,15.50
2022-09-11T20:00:07.575Z,15.90
2022-09-11T20:02:36.060Z,15.80
2022-09-11T20:05:04.701Z,15.90
2022-09-11T20:07:34.800Z,15.90
2022-09-11T20:10:03.468Z,15.80
2022-09-11T20:12:37.195Z,15.10
2022-09-11T20:15:08.373Z,15.80
2022-09-11T20:17:37.196Z,15.70
2022-09-11T20:20:07.053Z,15.70
2022-09-11T20:22:35.565Z,15.60
2022-09-11T20:25:04.069Z,15.60
2022-09-11T20:27:34.574Z,15.60
2022-09-11T20:30:03.043Z,15.50
2022-09-11T20:32:31.645Z,14.70
2022-09-11T20:35:00.561Z,14.80
2022-09-11T20:37:35.179Z,14.90
2022-09-11T20:40:05.676Z,15.20
2022-09-11T20:42:35.560Z,15.00
2022-09-11T20:45:03.993Z,15.30
2022-09-11T20:47:32.476Z,15.30
2022-09-11T20:50:00.879Z,15.20
2022-09-11T20:52:30.485Z,15.20
2022-09-11T20:55:00.464Z,15.20
2022-09-11T20:57:31.254Z,15.20
2022-09-11T21:00:01.295Z,15.10
2022-09-11T21:02:29.787Z,14.70
2022-09-11T21:04:58.280Z,14.30
2022-09-11T21:07:26.782Z,14.10
2022-09-11T21:09:55.255Z,15.20
2022-09-11T21:12:23.704Z,15.20
2022-09-11T21:14:52.220Z,15.20
2022-09-11T21:17:22.107Z,15.20
2022-09-11T21:19:54.271Z,15.30
2022-09-11T21:22:25.904Z,15.20
2022-09-11T21:24:54.637Z,15.20
2022-09-11T21:27:23.412Z,15.10
2022-09-11T21:29:52.126Z,14.90
2022-09-11T21:32:22.006Z,14.20
2022-09-11T21:34:50.561Z,15.00
2022-09-11T21:37:19.390Z,14.50
2022-09-11T21:39:47.881Z,14.90
2022-09-11T21:42:16.351Z,14.80
2022-09-11T21:44:44.826Z,14.70
2022-09-11T21:47:13.359Z,14.30
2022-09-11T21:49:43.156Z,14.60
2022-09-11T21:52:12.138Z,14.70
2022-09-11T21:54:40.912Z,14.20
2022-09-11T21:57:09.773Z,14.60
2022-09-11T21:59:38.258Z,14.70
2022-09-11T22:02:08.845Z,14.00
2022-09-11T22:04:37.605Z,14.10
2022-09-11T22:07:07.762Z,14.60
2022-09-11T22:09:36.504Z,14.60
2022-09-11T22:12:06.213Z,14.50
2022-09-11T22:14:34.930Z,14.50
2022-09-11T22:17:03.770Z,13.80
2022-09-11T22:19:33.032Z,14.50
2022-09-11T22:22:02.009Z,14.40
2022-09-11T22:24:32.961Z,14.40
2022-09-11T22:27:02.020Z,14.50
2022-09-11T22:29:30.703Z,13.70
2022-09-11T22:31:59.466Z,12.90
2022-09-11T22:34:28.113Z,13.10
2022-09-11T22:36:56.691Z,13.40
2022-09-11T22:39:25.449Z,14.40
2022-09-11T22:41:56.233Z,13.10
2022-09-11T22:44:24.770Z,12.10
2022-09-11T22:46:53.448Z,13.00
2022-09-11T22:49:22.099Z,14.20
2022-09-11T22:51:53.610Z,13.40
2022-09-11T22:54:22.075Z,14.10
2022-09-11T22:56:51.184Z,14.20
2022-09-11T22:59:21.124Z,14.20
2022-09-11T23:01:49.755Z,14.00
2022-09-11T23:04:18.654Z,14.20
2022-09-11T23:07:04.189Z,13.40
2022-09-11T23:09:32.619Z,13.60
2022-09-11T23:12:01.301Z,14.10
2022-09-11T23:14:31.259Z,10.00
2022-09-11T23:16:59.806Z,12.60
2022-09-11T23:19:29.606Z,13.70
2022-09-11T23:21:58.118Z,14.00
2022-09-11T23:24:27.844Z,13.60
2022-09-11T23:26:56.633Z,12.20
2022-09-11T23:29:26.413Z,13.00
2022-09-11T23:31:57.772Z,13.80
2022-09-11T23:34:26.319Z,13.40
2022-09-11T23:36:55.251Z,13.60
2022-09-11T23:39:23.753Z,13.60
2022-09-11T23:41:52.526Z,13.60
2022-09-11T23:44:21.174Z,13.30
2022-09-11T23:46:49.698Z,13.60
2022-09-11T23:49:20.568Z,13.60
2022-09-11T23:51:50.446Z,13.20
2022-09-11T23:54:18.916Z,13.40
2022-09-11T23:56:47.728Z,13.40
2022-09-11T23:59:16.643Z,13.60
